Time;durP1;ratioP1;P1;durP2;ratioP2;P2;SDS_P1;SDS_P2;PMS_P1;PMS_P2;Temp;Humidity;BMP_temperature;BMP_pressure;BME280_temperature;BME280_humidity;BME280_pressure;Samples;Min_cycle;Max_cycle;Signal;HPM_P1;HPM_P2
2021/06/04 00:01:10;;;;;;;;;;;;;;;;;;;;;
2021/06/04 00:04:24;;;;;;;5.00;4.60;;;18.80;99.90;;;;;;4847870;29;20503;-80
2021/06/04 00:17:40;;;;;;;4.53;4.13;;;18.70;99.90;;;;;;4737880;29;20527;-78
2021/06/04 00:27:06;;;;;;;4.67;4.40;;;18.50;99.90;;;;;;4869172;29;20475;-80
2021/06/04 00:39:59;;;;;;;5.80;5.40;;;18.30;99.90;;;;;;4886538;29;20460;-80
2021/06/04 00:46:09;;;;;;;5.30;4.90;;;18.20;99.90;;;;;;4899147;29;20463;-80
2021/06/04 00:52:03;;;;;;;5.20;4.80;;;18.10;99.90;;;;;;4850310;29;21025;-81
2021/06/04 00:55:00;;;;;;;9.67;6.00;;;18.10;99.90;;;;;;4898789;29;20763;-79
2021/06/04 00:58:23;;;;;;;;;;;;;;;;;;;;;
2021/06/04 01:07:38;;;;;;;5.70;5.20;;;18.00;99.90;;;;;;4895692;29;20890;-81
2021/06/04 01:10:37;;;;;;;4.57;4.17;;;18.00;99.90;;;;;;4898275;29;20475;-80
2021/06/04 01:13:21;;;;;;;5.30;5.00;;;18.00;99.90;;;;;;4899155;29;20487;-81
2021/06/04 01:16:20;;;;;;;5.43;5.03;;;18.00;99.90;;;;;;4902317;29;20463;-80
2021/06/04 01:19:31;;;;;;;5.00;4.63;;;18.00;99.90;;;;;;4903027;29;20463;-81
2021/06/04 01:29:03;;;;;;;;;;;;;;;;;;;;;
2021/06/04 01:37:34;;;;;;;5.30;4.83;;;17.70;99.90;;;;;;4888503;29;20447;-80
2021/06/04 01:49:41;;;;;;;6.27;5.87;;;17.50;99.90;;;;;;4862413;29;20460;-80
2021/06/04 01:52:32;;;;;;;6.03;5.63;;;17.60;99.90;;;;;;4890277;29;20508;-80
2021/06/04 01:55:29;;;;;;;5.63;5.23;;;17.50;99.90;;;;;;4889721;29;20510;-80
2021/06/04 01:58:16;;;;;;;6.17;5.67;;;17.50;99.90;;;;;;4889730;29;20835;-80
2021/06/04 02:01:04;;;;;;;5.83;5.43;;;17.50;99.90;;;;;;4890261;29;20477;-80
2021/06/04 02:03:41;;;;;;;6.30;5.70;;;17.50;99.90;;;;;;4889811;29;20475;-80
2021/06/04 02:06:43;;;;;;;7.17;6.67;;;17.50;99.90;;;;;;4890016;29;20463;-80
2021/06/04 02:09:38;;;;;;;6.70;6.20;;;17.40;99.90;;;;;;4889926;29;20447;-80
2021/06/04 02:15:09;;;;;;;;;;;;;;;;;;;;;
2021/06/04 02:18:07;;;;;;;6.40;5.90;;;17.40;99.90;;;;;;4881299;29;20519;-78
2021/06/04 02:20:51;;;;;;;6.13;5.73;;;17.30;99.90;;;;;;4892871;29;20763;-78
2021/06/04 02:23:50;;;;;;;5.73;5.33;;;17.30;99.90;;;;;;4889585;29;20473;-80
2021/06/04 02:27:00;;;;;;;;;;;;;;;;;;;;;
2021/06/04 02:39:33;;;;;;;6.40;5.90;;;17.30;99.90;;;;;;4886479;29;20507;-80
2021/06/04 02:42:43;;;;;;;6.13;5.57;;;17.30;99.90;;;;;;4888157;29;20474;-80
2021/06/04 02:45:52;;;;;;;6.93;6.30;;;17.30;99.90;;;;;;4813105;29;20451;-80
2021/06/04 02:51:41;;;;;;;7.17;6.67;;;17.30;99.90;;;;;;4873425;29;20471;-80
2021/06/04 02:58:00;;;;;;;;;;;;;;;;;;;;;
2021/06/04 03:00:54;;;;;;;7.30;6.80;;;17.20;99.90;;;;;;4843749;29;20546;-80
2021/06/04 03:07:07;;;;;;;;;;;;;;;;;;;;;
2021/06/04 03:10:17;;;;;;;;;;;;;;;;;;;;;
2021/06/04 03:13:00;;;;;;;8.90;8.20;;;17.10;99.90;;;;;;4884150;29;20564;-80
2021/06/04 03:16:11;;;;;;;8.80;7.60;;;17.10;99.90;;;;;;4888508;29;20515;-80
2021/06/04 03:25:41;;;;;;;7.50;6.90;;;17.00;99.90;;;;;;4888520;29;20542;-80
2021/06/04 03:35:03;;;;;;;7.57;6.97;;;17.10;99.90;;;;;;4884243;29;20493;-80
2021/06/04 03:38:05;;;;;;;8.17;7.37;;;17.10;99.90;;;;;;4888998;29;20465;-80
2021/06/04 03:47:06;;;;;;;7.87;7.17;;;17.10;99.90;;;;;;4861290;29;21043;-80
2021/06/04 03:50:06;;;;;;;8.30;7.70;;;17.20;99.90;;;;;;4887951;29;20482;-80
2021/06/04 03:59:16;;;;;;;;;;;;;;;;;;;;;
2021/06/04 04:02:17;;;;;;;7.93;7.40;;;17.30;99.90;;;;;;4882314;29;20550;-80
2021/06/04 04:05:31;;;;;;;7.53;7.03;;;17.40;99.90;;;;;;4888598;29;20480;-80
2021/06/04 04:12:19;;;;;;;;;;;;;;;;;;;;;
2021/06/04 04:15:17;;;;;;;8.27;7.67;;;17.60;99.90;;;;;;4829612;29;20501;-80
2021/06/04 04:18:24;;;;;;;9.77;8.77;;;17.70;99.90;;;;;;4829492;29;20473;-80
2021/06/04 04:21:47;;;;;;;9.37;8.67;;;17.90;99.90;;;;;;4830278;29;20851;-79
2021/06/04 04:30:59;;;;;;;10.10;9.17;;;18.30;99.90;;;;;;4879395;29;20463;-80
2021/06/04 04:34:10;;;;;;;;;;;;;;;;;;;;;
2021/06/04 04:37:30;;;;;;;8.57;7.97;;;18.50;99.90;;;;;;4879519;29;20523;-79
2021/06/04 04:46:57;;;;;;;;;;;;;;;;;;;;;
2021/06/04 05:00:37;;;;;;;;;;;;;;;;;;;;;
2021/06/04 05:17:21;;;;;;;;;;;;;;;;;;;;;
2021/06/04 05:23:23;;;;;;;7.70;7.00;;;19.20;99.90;;;;;;4760500;30;20485;-80
2021/06/04 05:30:32;;;;;;;;;;;;;;;;;;;;;
2021/06/04 05:44:22;;;;;;;7.40;6.90;;;20.20;99.90;;;;;;4730725;30;21514;-79
2021/06/04 07:10:14;;;;;;;;;;;;;;;;;;;;;
2021/06/04 07:16:04;;;;;;;4.17;3.77;;;23.30;98.40;;;;;;4838296;29;20510;-82
2021/06/04 07:18:30;;;;;;;5.57;4.90;;;23.30;98.50;;;;;;4846273;29;20453;-84
2021/06/04 07:20:58;;;;;;;4.03;3.73;;;23.30;98.60;;;;;;4845973;29;20477;-83
2021/06/04 07:23:26;;;;;;;4.17;3.87;;;23.30;98.70;;;;;;4846929;29;20473;-84
2021/06/04 07:25:54;;;;;;;4.23;3.87;;;23.10;99.20;;;;;;4845271;29;20454;-83
2021/06/04 07:28:24;;;;;;;3.70;3.40;;;23.00;98.90;;;;;;4844207;29;20516;-81
2021/06/04 07:30:52;;;;;;;3.60;3.30;;;23.00;99.50;;;;;;4845377;29;20446;-81
2021/06/04 07:33:22;;;;;;;3.80;3.50;;;23.00;99.00;;;;;;4845670;29;20469;-82
2021/06/04 07:35:49;;;;;;;3.60;3.30;;;23.00;97.90;;;;;;4849701;29;21031;-81
2021/06/04 07:38:15;;;;;;;3.47;3.27;;;23.00;98.20;;;;;;4847230;29;20841;-83
2021/06/04 07:40:42;;;;;;;3.80;3.50;;;23.10;98.00;;;;;;4849924;29;20513;-85
2021/06/04 07:43:13;;;;;;;2.83;2.63;;;23.20;97.70;;;;;;4849529;29;20573;-85
2021/06/04 07:45:42;;;;;;;5.07;3.20;;;23.30;97.50;;;;;;4847525;29;20453;-84
2021/06/04 07:48:12;;;;;;;3.37;3.07;;;23.40;97.40;;;;;;4839460;29;20458;-86
2021/06/04 07:50:40;;;;;;;3.23;2.93;;;23.40;96.90;;;;;;4852416;29;20455;-84
2021/06/04 07:53:06;;;;;;;3.80;2.93;;;23.50;96.10;;;;;;4847140;29;20540;-84
2021/06/04 07:55:44;;;;;;;2.90;2.60;;;23.60;96.10;;;;;;4845882;29;20493;-87
2021/06/04 07:58:16;;;;;;;3.53;3.00;;;23.70;95.50;;;;;;4847728;29;20812;-85
2021/06/04 08:00:42;;;;;;;3.80;2.67;;;23.90;95.60;;;;;;4848826;29;20474;-84
2021/06/04 09:27:22;;;;;;;3.40;3.10;;;26.30;88.30;;;;;;1406487;27;20490;-84
2021/06/04 09:54:23;;;;;;;3.50;3.20;;;27.90;83.80;;;;;;1348911;27;20678;-81
2021/06/04 09:56:50;;;;;;;3.60;3.30;;;28.00;83.00;;;;;;4847564;29;20460;-82
2021/06/04 09:59:22;;;;;;;3.50;3.30;;;28.10;82.40;;;;;;4847307;29;20569;-81
2021/06/04 10:01:54;;;;;;;6.97;3.13;;;28.00;82.50;;;;;;4846439;29;20476;-80
2021/06/04 10:04:27;;;;;;;3.97;3.67;;;28.10;83.80;;;;;;4851098;29;20904;-81
2021/06/04 10:07:02;;;;;;;4.37;4.07;;;28.30;84.10;;;;;;4846649;29;21022;-80
2021/06/04 10:09:34;;;;;;;5.20;4.50;;;28.30;85.90;;;;;;4846329;29;20982;-79
2021/06/04 10:12:07;;;;;;;3.13;2.83;;;28.40;85.40;;;;;;4847654;29;20481;-85
2021/06/04 10:14:46;;;;;;;4.17;3.93;;;28.50;86.00;;;;;;4847845;29;20482;-83
2021/06/04 10:17:41;;;;;;;4.50;4.10;;;28.50;85.10;;;;;;4848252;29;20485;-83
2021/06/04 10:20:25;;;;;;;3.27;3.07;;;28.40;83.20;;;;;;4847295;29;20471;-85
2021/06/04 10:22:53;;;;;;;4.63;4.27;;;28.20;83.70;;;;;;4847210;29;20539;-86
2021/06/04 10:25:28;;;;;;;4.77;4.37;;;28.10;85.40;;;;;;4847490;29;20463;-86
2021/06/04 10:27:56;;;;;;;3.93;3.70;;;28.20;85.70;;;;;;4848012;29;20463;-86
2021/06/04 10:30:26;;;;;;;5.33;4.93;;;28.10;84.40;;;;;;4853676;29;20456;-84
2021/06/04 10:33:03;;;;;;;4.20;3.90;;;27.90;85.50;;;;;;4864528;29;20457;-84
2021/06/04 10:35:33;;;;;;;4.30;3.90;;;27.60;86.60;;;;;;4859396;29;20481;-83
2021/06/04 10:38:04;;;;;;;4.50;4.10;;;27.30;88.00;;;;;;4845894;29;21000;-83
2021/06/04 10:40:46;;;;;;;4.23;3.93;;;27.40;88.30;;;;;;4846628;29;20518;-83
2021/06/04 10:43:37;;;;;;;4.00;3.70;;;27.50;89.40;;;;;;4846319;29;20501;-83
2021/06/04 10:46:17;;;;;;;5.37;4.43;;;27.40;90.10;;;;;;4847977;29;20457;-83
2021/06/04 10:48:57;;;;;;;5.30;4.80;;;27.50;90.40;;;;;;4848136;29;20469;-84
2021/06/04 10:51:58;;;;;;;4.47;4.07;;;27.70;90.50;;;;;;4840640;29;20596;-83
2021/06/04 10:58:04;;;;;;;;;;;;;;;;;;;;;
2021/06/04 11:20:28;;;;;;;4.87;4.60;;;27.80;91.50;;;;;;4805031;29;20458;-83
2021/06/04 11:23:03;;;;;;;3.93;3.63;;;27.70;90.70;;;;;;4836736;29;21022;-83
2021/06/04 11:25:45;;;;;;;4.17;3.97;;;27.90;90.20;;;;;;4858829;29;20542;-83
2021/06/04 11:28:24;;;;;;;4.90;4.50;;;28.10;89.60;;;;;;4867425;29;20468;-81
2021/06/04 11:30:54;;;;;;;4.43;3.90;;;28.20;88.20;;;;;;4863429;29;20823;-84
2021/06/04 11:33:22;;;;;;;3.77;3.40;;;28.30;86.90;;;;;;4864352;29;20487;-83
2021/06/04 11:35:53;;;;;;;4.37;3.97;;;28.40;86.60;;;;;;4864134;29;20499;-82
2021/06/04 12:15:45;;;;;;;4.67;4.37;;;30.00;83.50;;;;;;4773538;30;20494;-84
2021/06/04 12:28:35;;;;;;;4.20;3.90;;;30.00;86.00;;;;;;4850363;29;20541;-83
2021/06/04 12:38:08;;;;;;;4.87;4.43;;;29.30;83.10;;;;;;4789235;30;20474;-83
2021/06/04 13:02:55;;;;;;;3.90;2.73;;;31.60;72.70;;;;;;4617326;30;20491;-82
2021/06/04 13:09:28;;;;;;;2.60;2.50;;;32.20;71.60;;;;;;4696614;30;20461;-81
2021/06/04 13:12:06;;;;;;;;;;;;;;;;;;;;;
2021/06/04 13:14:36;;;;;;;4.17;3.43;;;32.60;68.70;;;;;;4835598;29;20542;-83
2021/06/04 13:17:17;;;;;;;3.70;3.50;;;32.50;69.20;;;;;;4860563;29;20441;-82
2021/06/04 13:19:49;;;;;;;3.40;3.10;;;32.60;70.20;;;;;;4862347;29;20485;-82
2021/06/04 13:22:18;;;;;;;4.17;3.10;;;32.80;71.10;;;;;;4861596;29;20532;-82
2021/06/04 13:24:46;;;;;;;3.57;3.27;;;33.20;68.60;;;;;;4862288;29;20449;-83
2021/06/04 13:27:20;;;;;;;5.83;4.00;;;33.50;66.30;;;;;;4861850;29;20457;-82
2021/06/04 13:29:53;;;;;;;3.60;3.30;;;33.70;65.80;;;;;;4872506;29;20713;-83
2021/06/04 13:32:26;;;;;;;3.43;3.13;;;33.70;65.70;;;;;;4874350;29;20497;-83
2021/06/04 13:34:57;;;;;;;3.83;3.53;;;33.40;64.90;;;;;;4871944;29;20498;-84
2021/06/04 13:37:27;;;;;;;4.07;3.70;;;32.90;64.40;;;;;;4870990;29;20464;-84
2021/06/04 13:39:53;;;;;;;4.40;4.10;;;32.30;66.20;;;;;;4870967;29;20543;-83
2021/06/04 13:42:23;;;;;;;4.77;4.30;;;31.60;68.20;;;;;;4870754;29;21012;-85
2021/06/04 13:44:51;;;;;;;5.43;4.30;;;30.80;70.50;;;;;;4871434;29;20454;-84
2021/06/04 13:47:37;;;;;;;3.97;3.57;;;30.10;72.50;;;;;;4871190;29;20464;-84
2021/06/04 13:50:23;;;;;;;4.00;3.70;;;29.50;72.70;;;;;;4871235;29;20469;-84
2021/06/04 13:53:06;;;;;;;4.70;4.10;;;29.00;74.50;;;;;;4870150;29;20486;-84
2021/06/04 13:55:32;;;;;;;4.70;3.93;;;28.60;75.20;;;;;;4870968;29;20567;-84
2021/06/04 13:58:21;;;;;;;6.00;4.30;;;28.30;77.00;;;;;;4870381;29;20461;-86
2021/06/04 14:01:15;;;;;;;4.03;3.60;;;27.70;80.30;;;;;;4870925;29;20466;-83
2021/06/04 14:03:44;;;;;;;5.20;4.70;;;26.90;83.40;;;;;;4870849;29;20497;-81
2021/06/04 14:06:24;;;;;;;7.30;5.53;;;26.40;87.50;;;;;;4872273;29;20459;-84
2021/06/04 14:09:04;;;;;;;5.27;4.70;;;25.70;90.80;;;;;;4872257;29;20824;-83
2021/06/04 14:11:32;;;;;;;5.80;4.83;;;25.40;92.30;;;;;;4872088;29;20489;-83
2021/06/04 14:14:04;;;;;;;4.67;4.30;;;25.10;93.50;;;;;;4872700;29;20453;-81
2021/06/04 14:16:36;;;;;;;5.10;4.70;;;24.90;93.90;;;;;;4872189;29;20497;-83
2021/06/04 14:19:03;;;;;;;5.40;5.00;;;24.60;94.60;;;;;;4877595;29;20461;-80
2021/06/04 14:21:41;;;;;;;4.80;4.03;;;24.50;94.70;;;;;;4884489;29;20457;-78
2021/06/04 14:24:28;;;;;;;4.63;4.33;;;24.50;95.20;;;;;;4877470;29;20480;-83
2021/06/04 14:26:57;;;;;;;5.30;4.90;;;24.50;95.00;;;;;;4870747;29;20456;-84
2021/06/04 14:29:28;;;;;;;3.60;3.40;;;24.50;94.60;;;;;;4870161;29;20464;-83
2021/06/04 14:31:58;;;;;;;5.53;4.37;;;24.60;94.10;;;;;;4869995;29;20518;-83
2021/06/04 14:34:28;;;;;;;5.30;4.80;;;24.70;93.50;;;;;;4869955;29;20457;-84
2021/06/04 14:36:57;;;;;;;4.07;3.83;;;24.70;93.40;;;;;;4870458;29;21046;-83
2021/06/04 14:39:45;;;;;;;8.00;4.70;;;24.90;94.10;;;;;;4869479;29;20537;-84
2021/06/04 14:42:17;;;;;;;6.90;5.07;;;25.10;94.70;;;;;;4863337;29;20530;-82
2021/06/04 14:44:45;;;;;;;7.27;5.83;;;25.30;95.60;;;;;;4869034;29;20798;-82
2021/06/04 14:47:19;;;;;;;4.70;4.30;;;25.70;94.90;;;;;;4869495;29;20469;-81
2021/06/04 14:49:47;;;;;;;5.37;4.97;;;26.00;93.70;;;;;;4870105;29;20458;-84
2021/06/04 14:52:17;;;;;;;6.60;4.57;;;26.40;92.80;;;;;;4869651;29;20487;-82
2021/06/04 14:54:44;;;;;;;4.60;4.20;;;27.10;92.40;;;;;;4869573;29;20586;-84
2021/06/04 14:57:11;;;;;;;4.20;3.90;;;27.90;91.20;;;;;;4869113;29;20452;-84
2021/06/04 14:59:38;;;;;;;4.20;3.90;;;28.40;90.00;;;;;;4869391;29;20452;-84
2021/06/04 15:02:09;;;;;;;4.33;3.90;;;28.80;88.20;;;;;;4868725;29;20478;-84
2021/06/04 15:45:02;;;;;;;4.37;3.97;;;28.80;85.40;;;;;;4713550;29;20464;-83
2021/06/04 15:56:39;;;;;;;4.47;4.17;;;28.80;84.20;;;;;;5173204;23;20482;-82
2021/06/04 15:59:06;;;;;;;4.00;3.70;;;28.90;84.30;;;;;;4885789;29;20450;-81
2021/06/04 16:01:40;;;;;;;4.97;4.50;;;28.90;83.20;;;;;;4885550;29;20508;-82
2021/06/04 16:04:08;;;;;;;5.00;4.63;;;29.10;82.80;;;;;;4884680;29;20470;-82
2021/06/04 16:06:34;;;;;;;4.70;4.30;;;29.10;81.60;;;;;;4885764;29;20448;-81
2021/06/04 16:09:03;;;;;;;4.80;4.40;;;29.30;81.40;;;;;;4885981;29;20792;-83
2021/06/04 16:11:29;;;;;;;4.10;3.63;;;29.40;81.10;;;;;;4885780;29;20460;-83
2021/06/04 16:13:56;;;;;;;3.90;3.50;;;29.50;80.20;;;;;;4885854;29;20457;-84
2021/06/04 16:16:22;;;;;;;4.10;3.70;;;29.80;80.50;;;;;;4886131;29;20919;-84
2021/06/04 16:52:43;;;;;;;3.80;3.60;;;31.60;72.00;;;;;;4886186;29;20494;-83
2021/06/04 17:08:05;;;;;;;4.00;3.70;;;30.70;71.90;;;;;;4763871;30;20471;-83
2021/06/04 17:10:33;;;;;;;3.70;3.40;;;30.30;72.90;;;;;;4840919;29;20465;-83
2021/06/04 17:13:00;;;;;;;6.20;4.50;;;30.00;73.40;;;;;;4885496;29;20477;-83
2021/06/04 17:15:32;;;;;;;4.60;4.23;;;29.70;74.00;;;;;;4885342;29;21038;-82
2021/06/04 17:17:59;;;;;;;4.23;3.83;;;29.40;74.40;;;;;;4886945;29;20468;-82
2021/06/04 17:20:25;;;;;;;4.13;3.83;;;29.30;75.60;;;;;;4885518;29;20459;-82
2021/06/04 17:22:52;;;;;;;4.60;4.00;;;29.10;76.20;;;;;;4886114;29;20503;-83
2021/06/04 17:25:21;;;;;;;4.60;4.20;;;29.00;76.60;;;;;;4886054;29;20467;-82
2021/06/04 17:27:54;;;;;;;3.83;3.50;;;28.80;77.30;;;;;;4886024;29;20468;-83
2021/06/04 17:30:22;;;;;;;4.27;3.97;;;28.50;77.10;;;;;;4886147;29;20467;-82
2021/06/04 17:32:48;;;;;;;6.07;4.20;;;28.30;78.10;;;;;;4886249;29;20491;-82
2021/06/04 17:35:16;;;;;;;5.27;4.67;;;28.20;79.00;;;;;;4887412;29;20524;-84
2021/06/04 17:37:42;;;;;;;4.27;3.97;;;28.00;80.00;;;;;;4889112;29;20470;-84
2021/06/04 17:40:12;;;;;;;4.90;4.50;;;27.80;80.80;;;;;;4888401;29;20473;-85
2021/06/04 17:42:40;;;;;;;4.60;4.17;;;27.60;81.20;;;;;;4887975;29;20539;-84
2021/06/04 17:45:11;;;;;;;4.20;3.90;;;27.50;82.10;;;;;;4890139;29;20465;-85
2021/06/04 17:47:37;;;;;;;5.43;5.03;;;27.40;83.30;;;;;;4888715;29;20513;-85
2021/06/04 17:50:05;;;;;;;4.37;3.97;;;27.20;84.10;;;;;;4889115;29;20474;-84
2021/06/04 17:52:33;;;;;;;4.93;4.43;;;27.00;84.70;;;;;;4889080;29;20539;-83
2021/06/04 17:55:01;;;;;;;4.90;4.50;;;26.80;86.10;;;;;;4891606;29;20471;-83
2021/06/04 17:57:27;;;;;;;4.67;4.30;;;26.60;87.20;;;;;;4892730;29;20743;-84
2021/06/04 17:59:54;;;;;;;5.17;4.00;;;26.50;86.70;;;;;;4895579;29;20896;-84
2021/06/04 18:02:23;;;;;;;5.87;4.60;;;26.40;86.90;;;;;;4894441;29;20595;-84
2021/06/04 18:04:50;;;;;;;4.13;3.83;;;26.30;86.60;;;;;;4902919;29;20535;-82
2021/06/04 18:07:17;;;;;;;4.13;3.73;;;26.20;86.30;;;;;;4903651;29;20453;-82
2021/06/04 18:09:43;;;;;;;4.10;3.80;;;26.10;87.00;;;;;;4898459;29;20489;-84
2021/06/04 18:12:10;;;;;;;4.40;4.07;;;26.10;88.00;;;;;;4895298;29;20476;-85
2021/06/04 18:14:37;;;;;;;6.17;5.00;;;26.00;88.40;;;;;;4896678;29;20473;-84
2021/06/04 18:17:04;;;;;;;4.40;4.10;;;26.00;88.70;;;;;;4895818;29;20492;-83
2021/06/04 18:19:31;;;;;;;3.80;3.60;;;25.90;89.10;;;;;;4895397;29;20459;-83
2021/06/04 18:21:57;;;;;;;4.70;4.40;;;25.90;89.50;;;;;;4895087;29;21104;-84
2021/06/04 18:24:24;;;;;;;4.97;4.43;;;25.80;90.00;;;;;;4895056;29;20517;-81
2021/06/04 18:26:52;;;;;;;5.53;4.70;;;25.80;89.80;;;;;;4895292;29;20552;-84
2021/06/04 18:29:21;;;;;;;5.10;4.67;;;25.70;89.90;;;;;;4901792;29;20448;-83
2021/06/04 18:31:47;;;;;;;5.53;4.13;;;25.60;90.10;;;;;;4900066;29;20560;-84
2021/06/04 18:34:13;;;;;;;5.60;4.73;;;25.50;90.20;;;;;;4903986;29;20445;-84
2021/06/04 18:36:41;;;;;;;5.23;4.63;;;25.40;90.30;;;;;;4905064;29;20577;-83
2021/06/04 18:39:07;;;;;;;4.23;3.93;;;25.20;90.30;;;;;;4901993;29;20457;-84
2021/06/04 18:41:34;;;;;;;4.53;4.30;;;25.10;90.50;;;;;;4902861;29;20464;-84
2021/06/04 18:44:01;;;;;;;4.57;4.13;;;24.90;90.90;;;;;;4905393;29;20528;-84
2021/06/04 18:46:27;;;;;;;4.83;4.30;;;24.80;91.20;;;;;;4903949;29;20515;-83
2021/06/04 18:48:56;;;;;;;4.20;3.90;;;24.70;91.60;;;;;;4897424;29;20476;-84
2021/06/04 18:51:25;;;;;;;5.10;4.20;;;24.60;91.80;;;;;;4894126;29;20453;-84
2021/06/04 18:53:54;;;;;;;5.17;4.87;;;24.50;92.00;;;;;;4892993;29;20456;-83
2021/06/04 18:56:21;;;;;;;5.67;4.57;;;24.40;92.10;;;;;;4889542;29;20492;-82
2021/06/04 18:58:48;;;;;;;5.10;4.70;;;24.30;92.40;;;;;;4898448;29;20452;-82
2021/06/04 19:01:16;;;;;;;6.87;4.50;;;24.30;92.70;;;;;;4899629;29;20892;-83
2021/06/04 19:03:45;;;;;;;4.50;4.20;;;24.20;92.80;;;;;;4894947;29;20476;-82
2021/06/04 19:06:18;;;;;;;5.30;4.90;;;24.10;92.80;;;;;;4899341;29;20446;-83
2021/06/04 19:08:45;;;;;;;5.30;4.90;;;24.00;92.90;;;;;;4897581;29;20460;-83
2021/06/04 19:11:13;;;;;;;5.10;4.67;;;23.90;93.00;;;;;;4897684;29;20456;-83
2021/06/04 19:13:40;;;;;;;4.73;4.30;;;23.80;93.20;;;;;;4896638;29;20475;-81
2021/06/04 19:16:07;;;;;;;6.23;5.70;;;23.70;93.40;;;;;;4896201;29;20502;-81
2021/06/04 19:18:33;;;;;;;6.40;5.80;;;23.60;93.60;;;;;;4896672;29;20492;-81
2021/06/04 19:21:00;;;;;;;5.70;5.10;;;23.60;94.00;;;;;;4898918;29;20451;-82
2021/06/04 19:23:28;;;;;;;4.83;4.43;;;23.50;94.40;;;;;;4898628;29;20467;-83
2021/06/04 19:25:55;;;;;;;5.90;5.40;;;23.40;94.60;;;;;;4898681;29;20483;-82
2021/06/04 19:28:23;;;;;;;5.77;5.27;;;23.30;94.90;;;;;;4902045;29;20997;-81
2021/06/04 19:30:55;;;;;;;5.27;4.87;;;23.20;95.10;;;;;;4897885;29;20458;-81
2021/06/04 19:33:25;;;;;;;6.13;5.53;;;23.10;95.20;;;;;;4898827;29;20475;-82
2021/06/04 19:35:51;;;;;;;5.60;5.20;;;23.00;95.20;;;;;;4893579;29;20490;-81
2021/06/04 19:38:19;;;;;;;5.47;4.97;;;22.90;95.40;;;;;;4897814;29;20994;-82
2021/06/04 19:40:48;;;;;;;5.03;4.73;;;22.80;95.60;;;;;;4895895;29;20463;-81
2021/06/04 19:43:17;;;;;;;6.30;5.87;;;22.70;95.90;;;;;;4895733;29;20472;-82
2021/06/04 19:45:46;;;;;;;5.73;5.23;;;22.70;96.20;;;;;;4886581;29;20446;-81
2021/06/04 19:48:13;;;;;;;5.00;4.60;;;22.60;96.40;;;;;;4876507;29;20491;-82
2021/06/04 19:50:39;;;;;;;6.50;5.97;;;22.50;96.60;;;;;;4878644;29;20465;-82
2021/06/04 19:53:06;;;;;;;6.00;5.40;;;22.40;96.80;;;;;;4875935;29;20475;-81
2021/06/04 19:55:33;;;;;;;5.33;4.83;;;22.40;97.10;;;;;;4879733;29;20458;-81
2021/06/04 19:58:00;;;;;;;5.27;4.77;;;22.30;97.30;;;;;;4883637;29;20452;-82
2021/06/04 20:00:33;;;;;;;5.93;5.53;;;22.20;97.40;;;;;;4879722;29;20976;-82
2021/06/04 20:08:17;;;;;;;5.67;5.27;;;22.10;98.10;;;;;;4173928;27;20532;-83
2021/06/04 20:10:47;;;;;;;7.70;7.10;;;22.10;98.40;;;;;;4845354;29;20906;-85
2021/06/04 20:13:37;;;;;;;6.63;6.00;;;22.10;98.60;;;;;;4841611;29;20485;-85
2021/06/04 20:16:16;;;;;;;7.10;6.37;;;22.00;98.90;;;;;;4835215;29;20520;-85
2021/06/04 20:18:45;;;;;;;7.90;7.10;;;22.00;99.20;;;;;;4838423;29;20479;-85
2021/06/04 20:21:15;;;;;;;6.43;5.80;;;22.00;99.40;;;;;;4842703;29;20445;-85
2021/06/04 20:24:15;;;;;;;6.40;5.90;;;21.90;99.50;;;;;;4836729;29;20478;-85
2021/06/04 20:26:59;;;;;;;6.50;5.90;;;21.90;99.70;;;;;;4832553;29;20792;-85
2021/06/04 20:29:29;;;;;;;7.80;7.10;;;21.90;99.80;;;;;;4834842;29;20504;-83
2021/06/04 20:38:43;;;;;;;7.70;5.90;;;21.80;99.90;;;;;;4774542;29;20458;-86
2021/06/04 20:45:01;;;;;;;7.40;6.70;;;21.70;99.90;;;;;;4804707;29;20467;-85
2021/06/04 20:50:58;;;;;;;7.77;6.93;;;21.10;99.90;;;;;;4814112;29;20499;-86
2021/06/04 20:53:57;;;;;;;;;;;;;;;;;;;;;
2021/06/04 20:56:30;;;;;;;7.37;6.67;;;20.90;99.90;;;;;;4831686;29;20505;-86
2021/06/04 21:03:07;;;;;;;;;;;;;;;;;;;;;
2021/06/04 21:05:59;;;;;;;6.37;5.97;;;20.80;99.90;;;;;;4777582;29;20540;-86
2021/06/04 21:09:02;;;;;;;7.30;6.70;;;20.80;99.90;;;;;;4784948;29;20565;-87
2021/06/04 21:11:53;;;;;;;6.50;5.90;;;20.70;99.90;;;;;;4757609;30;20532;-86
2021/06/04 21:14:46;;;;;;;7.87;7.20;;;20.70;99.90;;;;;;4832827;29;20462;-83
2021/06/04 21:17:39;;;;;;;7.70;7.00;;;20.60;99.90;;;;;;4832759;29;20913;-83
2021/06/04 21:20:34;;;;;;;6.87;6.47;;;20.60;99.90;;;;;;4832267;29;20502;-86
2021/06/04 21:23:51;;;;;;;6.10;5.70;;;20.50;99.90;;;;;;4831604;29;20470;-87
2021/06/04 21:27:02;;;;;;;;;;;;;;;;;;;;;
2021/06/04 21:39:19;;;;;;;8.97;8.27;;;20.30;99.90;;;;;;4801914;29;20459;-86
2021/06/04 21:42:06;;;;;;;7.40;6.80;;;20.30;99.90;;;;;;4800444;29;21025;-87
2021/06/04 21:44:34;;;;;;;9.20;7.50;;;20.30;99.90;;;;;;4833063;29;20878;-85
2021/06/04 21:47:19;;;;;;;7.77;7.13;;;20.20;99.90;;;;;;4832920;29;20473;-85
2021/06/04 21:52:49;;;;;;;8.80;7.97;;;20.00;99.90;;;;;;4830809;29;20494;-85
2021/06/04 21:55:26;;;;;;;8.53;7.90;;;20.10;99.90;;;;;;4832108;29;20516;-86
2021/06/04 21:58:03;;;;;;;9.03;8.43;;;20.00;99.90;;;;;;4830256;29;20510;-83
2021/06/04 22:00:39;;;;;;;8.00;7.30;;;19.70;99.90;;;;;;4838641;29;20464;-85
2021/06/04 22:03:14;;;;;;;7.43;6.90;;;19.50;99.90;;;;;;4844381;29;20521;-82
2021/06/04 22:05:59;;;;;;;9.33;6.33;;;19.50;99.90;;;;;;4839863;29;20470;-85
2021/06/04 22:08:29;;;;;;;6.00;5.60;;;19.50;99.90;;;;;;4834161;29;20502;-84
2021/06/04 22:11:08;;;;;;;6.83;6.33;;;19.70;99.90;;;;;;4834348;29;20466;-85
2021/06/04 22:13:38;;;;;;;6.60;6.00;;;19.60;99.90;;;;;;4833863;29;20487;-84
2021/06/04 22:16:05;;;;;;;6.00;5.60;;;19.70;99.90;;;;;;4833844;29;20499;-85
2021/06/04 22:18:31;;;;;;;5.93;5.37;;;19.60;99.90;;;;;;4833382;29;20981;-85
2021/06/04 22:20:58;;;;;;;6.53;5.87;;;19.70;99.90;;;;;;4832908;29;20454;-85
2021/06/04 22:23:29;;;;;;;6.17;5.67;;;19.70;99.90;;;;;;4833112;29;20491;-85
2021/06/04 22:25:59;;;;;;;5.80;5.40;;;19.80;99.90;;;;;;4832908;29;20462;-85
2021/06/04 22:28:29;;;;;;;7.10;6.40;;;19.80;99.90;;;;;;4833363;29;20468;-84
2021/06/04 22:31:00;;;;;;;6.27;5.73;;;19.80;99.90;;;;;;4833024;29;20465;-85
2021/06/04 22:33:28;;;;;;;6.00;5.50;;;19.80;99.90;;;;;;4833042;29;20621;-85
2021/06/04 22:35:57;;;;;;;5.57;5.17;;;19.90;99.90;;;;;;4833322;29;20911;-84
2021/06/04 22:38:24;;;;;;;7.60;7.00;;;19.80;99.90;;;;;;4831362;29;20558;-85
2021/06/04 22:40:51;;;;;;;6.73;6.10;;;19.80;99.90;;;;;;4832917;29;20823;-85
2021/06/04 22:43:19;;;;;;;6.30;5.80;;;19.70;99.90;;;;;;4831410;29;21029;-83
2021/06/04 22:45:45;;;;;;;6.23;5.73;;;19.70;99.90;;;;;;4832027;29;20464;-84
2021/06/04 22:48:11;;;;;;;6.20;5.70;;;19.60;99.90;;;;;;4832608;29;20467;-84
2021/06/04 22:50:39;;;;;;;6.63;5.90;;;19.50;99.90;;;;;;4832059;29;20474;-84
2021/06/04 22:53:08;;;;;;;6.33;5.83;;;19.40;99.90;;;;;;4831566;29;20495;-85
2021/06/04 22:55:37;;;;;;;6.30;5.80;;;19.40;99.90;;;;;;4833365;29;20463;-84
2021/06/04 22:58:05;;;;;;;7.10;6.47;;;19.20;99.90;;;;;;4833151;29;20460;-84
2021/06/04 23:00:35;;;;;;;7.07;6.57;;;19.30;99.90;;;;;;4832368;29;20443;-84
2021/06/04 23:03:02;;;;;;;6.40;5.90;;;19.30;99.90;;;;;;4831630;29;20505;-83
2021/06/04 23:05:30;;;;;;;6.60;6.10;;;19.40;99.90;;;;;;4831302;29;20966;-84
2021/06/04 23:07:56;;;;;;;6.27;5.77;;;19.40;99.90;;;;;;4831242;29;20492;-84
2021/06/04 23:10:25;;;;;;;5.97;5.33;;;19.40;99.90;;;;;;4830850;29;20459;-84
2021/06/04 23:12:51;;;;;;;4.73;4.33;;;19.50;99.90;;;;;;4830781;29;20485;-84
2021/06/04 23:15:18;;;;;;;4.83;4.07;;;19.50;99.90;;;;;;4830880;29;20981;-83
2021/06/04 23:17:46;;;;;;;4.17;3.87;;;19.50;99.90;;;;;;4830625;29;20495;-83
2021/06/04 23:20:16;;;;;;;3.97;3.63;;;19.50;99.90;;;;;;4831056;29;20832;-84
2021/06/04 23:22:43;;;;;;;3.53;3.33;;;19.50;99.90;;;;;;4831150;29;20486;-84
2021/06/04 23:25:12;;;;;;;3.43;3.13;;;19.50;99.90;;;;;;4830564;29;20447;-84
2021/06/04 23:27:38;;;;;;;2.80;2.40;;;19.50;99.90;;;;;;4831078;29;21008;-83
2021/06/04 23:30:06;;;;;;;2.43;2.33;;;19.60;99.90;;;;;;4831204;29;20527;-84
2021/06/04 23:32:33;;;;;;;1.93;1.83;;;19.60;99.90;;;;;;4830039;29;20471;-83
2021/06/04 23:35:01;;;;;;;3.40;1.87;;;19.50;99.90;;;;;;4830490;29;20465;-84
2021/06/04 23:37:27;;;;;;;1.90;1.50;;;19.50;99.90;;;;;;4830612;29;20494;-84
2021/06/04 23:39:53;;;;;;;2.30;1.50;;;19.40;99.90;;;;;;4830739;29;20474;-84
2021/06/04 23:42:19;;;;;;;1.47;1.37;;;19.40;99.90;;;;;;4830233;29;20490;-84
2021/06/04 23:44:46;;;;;;;1.63;1.53;;;19.30;99.90;;;;;;4829954;29;20462;-84
2021/06/04 23:47:12;;;;;;;2.63;2.43;;;19.20;99.90;;;;;;4830237;29;20459;-84
2021/06/04 23:49:38;;;;;;;1.60;1.50;;;19.10;99.90;;;;;;4829892;29;20480;-83
2021/06/04 23:52:06;;;;;;;1.20;1.10;;;19.10;99.90;;;;;;4830131;29;21074;-84
2021/06/04 23:54:33;;;;;;;1.60;1.50;;;19.10;99.90;;;;;;4830524;29;20461;-84
2021/06/04 23:56:59;;;;;;;1.10;1.07;;;19.10;99.90;;;;;;4829786;29;20490;-84
2021/06/04 23:59:26;;;;;;;1.60;1.50;;;19.10;99.90;;;;;;4830148;29;20487;-84
